ENSO/SRP METAR and TAF weather

Enter ICAO airport designator
Station Type Date Time Source
ENSO METAR 2021/10/22 17:20 UTC NOAA

ENSO 221720Z 30021G31KT 170V340 9999 SCT022CB SCT040 08/04 Q1006


Station Type Date Time Source
ENSO Decoded METAR 2021/10/22 17:20 UTC NOAA

Stord / Soerstokken, Norway (ENSO) 59-48N 005-21E
Oct 22, 2021 - 01:20 PM EDT / 2021.10.22 1720 UTC
Wind: from the WNW (300 degrees) at 24 MPH (21 KT) gusting to 36 MPH (31 KT) (direction variable):0
Visibility: greater than 7 mile(s):0
Sky conditions: partly cloudy
Weather: Cumulonimbus clouds observed
Temperature: 46 F (8 C)
Dew Point: 39 F (4 C)
Relative Humidity: 75%
Pressure (altimeter): 29.71 in. Hg (1006 hPa)
ob: ENSO 221720Z 30021G31KT 170V340 9999 SCT022CB SCT040 08/04 Q1006
cycle: 17

Station Type Date Time Source
ENSO TAF UTC NOAA

Error!

Example: see airport list